Huvudsida
METAR-TAF:

METAR-TAF

Flygplatser :

Røsts flygplats

Røst, Norge

latitud: 67-31N, longitud: 012-06E, höjd: 4 m

Aktuellt väderrapport

Denna rapport gjordes för 46 minuter sedan, klockan 07:20 UTC
Vind 31 kt från syd/sydväst i byarna ända upp till 41 kt
Temperatur 5°C
Fuktighet 75%
Tryck 957 hPa
Sikt 10 km eller mer
Få moln på en höjd av 800 ft
Spridda moln på en höjd av 1200 ft, Cumulonimbus.
Brutna moln på en höjd av 2500 ft
lätta regnskurar

METAR: ENRS 220720Z 21031G41KT 9999 -SHRA FEW008 SCT012CB BKN025 05/01 Q0957

Tid: 09:06 (08:06 UTC)


TAF: saknas

Aktuella väderrapporter och prognoser från 4000 flygplatser (METAR- och TAF-rapporter).

De tillgängliga stationerna syns som gula och röda prickar på kartan.

För musen över prickarna för att se namnen på stationerna.

Klicka sedan för att få väderrapporter och prognoser.

För att ändra kartan: Klicka på de gröna knapparna med ett svart kors på för att zooma in; den gröna knappen med ett streck på för att zooma ut; eller på de gröna pilarna för angränsande kartor.


METAR-TAF: